sensor_id;sensor_type;location;lat;lon;timestamp;P1;durP1;ratioP1;P2;durP2;ratioP2
40815;SDS011;26535;48.788;9.214;2023-09-08T00:01:15;10.93;;;5.78;;
40815;SDS011;26535;48.788;9.214;2023-09-08T00:03:41;8.40;;;6.15;;
40815;SDS011;26535;48.788;9.214;2023-09-08T00:06:06;10.38;;;6.40;;
40815;SDS011;26535;48.788;9.214;2023-09-08T00:08:32;10.43;;;6.65;;
40815;SDS011;26535;48.788;9.214;2023-09-08T00:10:58;10.00;;;6.20;;
40815;SDS011;26535;48.788;9.214;2023-09-08T00:13:23;9.70;;;6.13;;
40815;SDS011;26535;48.788;9.214;2023-09-08T00:15:49;10.55;;;6.28;;
40815;SDS011;26535;48.788;9.214;2023-09-08T00:18:15;9.45;;;5.82;;
40815;SDS011;26535;48.788;9.214;2023-09-08T00:20:41;10.00;;;6.78;;
40815;SDS011;26535;48.788;9.214;2023-09-08T00:23:07;8.60;;;5.80;;
40815;SDS011;26535;48.788;9.214;2023-09-08T00:25:33;10.52;;;6.07;;
40815;SDS011;26535;48.788;9.214;2023-09-08T00:27:59;10.27;;;6.38;;
40815;SDS011;26535;48.788;9.214;2023-09-08T00:30:25;8.13;;;6.03;;
40815;SDS011;26535;48.788;9.214;2023-09-08T05:42:06;9.85;;;7.05;;
40815;SDS011;26535;48.788;9.214;2023-09-08T05:44:33;10.73;;;8.05;;
40815;SDS011;26535;48.788;9.214;2023-09-08T05:46:59;9.45;;;7.20;;
40815;SDS011;26535;48.788;9.214;2023-09-08T05:49:24;11.00;;;7.40;;
40815;SDS011;26535;48.788;9.214;2023-09-08T05:51:50;10.57;;;7.60;;
40815;SDS011;26535;48.788;9.214;2023-09-08T05:54:17;12.20;;;8.73;;
40815;SDS011;26535;48.788;9.214;2023-09-08T05:56:42;12.52;;;7.40;;
40815;SDS011;26535;48.788;9.214;2023-09-08T05:59:09;12.48;;;7.82;;
40815;SDS011;26535;48.788;9.214;2023-09-08T06:01:36;13.43;;;8.02;;
40815;SDS011;26535;48.788;9.214;2023-09-08T06:04:04;11.73;;;7.47;;
40815;SDS011;26535;48.788;9.214;2023-09-08T06:06:30;9.07;;;7.18;;
40815;SDS011;26535;48.788;9.214;2023-09-08T06:08:57;12.05;;;7.70;;
40815;SDS011;26535;48.788;9.214;2023-09-08T06:11:24;11.63;;;7.35;;
40815;SDS011;26535;48.788;9.214;2023-09-08T06:13:50;9.82;;;7.03;;
40815;SDS011;26535;48.788;9.214;2023-09-08T06:16:18;10.60;;;7.00;;
40815;SDS011;26535;48.788;9.214;2023-09-08T06:18:45;10.75;;;7.70;;
40815;SDS011;26535;48.788;9.214;2023-09-08T06:21:15;12.63;;;7.93;;
40815;SDS011;26535;48.788;9.214;2023-09-08T06:23:41;13.02;;;7.85;;
40815;SDS011;26535;48.788;9.214;2023-09-08T06:26:07;10.75;;;7.32;;
40815;SDS011;26535;48.788;9.214;2023-09-08T06:28:34;11.37;;;7.10;;
40815;SDS011;26535;48.788;9.214;2023-09-08T06:31:01;10.65;;;7.82;;
40815;SDS011;26535;48.788;9.214;2023-09-08T06:33:28;13.02;;;7.13;;
40815;SDS011;26535;48.788;9.214;2023-09-08T06:35:54;10.18;;;7.63;;
40815;SDS011;26535;48.788;9.214;2023-09-08T06:38:20;14.38;;;8.95;;
40815;SDS011;26535;48.788;9.214;2023-09-08T06:40:46;17.60;;;10.55;;
40815;SDS011;26535;48.788;9.214;2023-09-08T06:43:13;19.15;;;9.60;;
40815;SDS011;26535;48.788;9.214;2023-09-08T06:45:49;14.65;;;8.93;;
40815;SDS011;26535;48.788;9.214;2023-09-08T06:48:15;14.23;;;9.52;;
40815;SDS011;26535;48.788;9.214;2023-09-08T06:50:41;17.10;;;9.35;;
40815;SDS011;26535;48.788;9.214;2023-09-08T06:53:07;17.92;;;10.15;;
40815;SDS011;26535;48.788;9.214;2023-09-08T06:55:32;15.80;;;9.18;;
40815;SDS011;26535;48.788;9.214;2023-09-08T06:57:58;12.85;;;8.95;;
40815;SDS011;26535;48.788;9.214;2023-09-08T07:00:24;14.50;;;9.63;;
40815;SDS011;26535;48.788;9.214;2023-09-08T07:02:51;16.25;;;9.10;;
40815;SDS011;26535;48.788;9.214;2023-09-08T07:05:17;17.25;;;9.82;;
40815;SDS011;26535;48.788;9.214;2023-09-08T07:07:43;12.07;;;8.65;;
40815;SDS011;26535;48.788;9.214;2023-09-08T07:10:09;13.70;;;8.95;;
40815;SDS011;26535;48.788;9.214;2023-09-08T07:12:35;16.17;;;9.13;;
40815;SDS011;26535;48.788;9.214;2023-09-08T07:15:01;15.15;;;8.50;;
40815;SDS011;26535;48.788;9.214;2023-09-08T07:17:28;12.65;;;8.90;;
40815;SDS011;26535;48.788;9.214;2023-09-08T07:19:53;18.20;;;9.15;;
40815;SDS011;26535;48.788;9.214;2023-09-08T07:22:20;13.40;;;8.00;;
40815;SDS011;26535;48.788;9.214;2023-09-08T07:24:46;10.90;;;8.88;;
40815;SDS011;26535;48.788;9.214;2023-09-08T07:27:12;12.93;;;8.05;;
40815;SDS011;26535;48.788;9.214;2023-09-08T07:29:40;11.80;;;9.02;;
40815;SDS011;26535;48.788;9.214;2023-09-08T07:32:06;13.82;;;8.68;;
40815;SDS011;26535;48.788;9.214;2023-09-08T07:34:32;12.98;;;8.90;;
40815;SDS011;26535;48.788;9.214;2023-09-08T07:36:59;11.95;;;8.15;;
40815;SDS011;26535;48.788;9.214;2023-09-08T07:39:25;12.02;;;8.20;;
40815;SDS011;26535;48.788;9.214;2023-09-08T07:41:52;10.52;;;8.18;;
40815;SDS011;26535;48.788;9.214;2023-09-08T07:44:18;13.27;;;7.45;;
40815;SDS011;26535;48.788;9.214;2023-09-08T07:46:45;15.70;;;8.88;;
40815;SDS011;26535;48.788;9.214;2023-09-08T07:49:14;12.43;;;7.93;;
40815;SDS011;26535;48.788;9.214;2023-09-08T07:51:40;12.70;;;7.85;;
40815;SDS011;26535;48.788;9.214;2023-09-08T07:54:06;10.55;;;7.63;;
40815;SDS011;26535;48.788;9.214;2023-09-08T07:56:31;11.20;;;6.80;;
40815;SDS011;26535;48.788;9.214;2023-09-08T07:58:57;13.25;;;8.18;;
40815;SDS011;26535;48.788;9.214;2023-09-08T08:01:23;13.35;;;7.50;;
40815;SDS011;26535;48.788;9.214;2023-09-08T08:03:49;12.27;;;7.65;;
40815;SDS011;26535;48.788;9.214;2023-09-08T08:06:15;10.93;;;7.10;;
40815;SDS011;26535;48.788;9.214;2023-09-08T08:08:40;17.33;;;8.43;;
40815;SDS011;26535;48.788;9.214;2023-09-08T08:11:13;11.55;;;7.10;;
40815;SDS011;26535;48.788;9.214;2023-09-08T08:13:39;12.80;;;7.60;;
40815;SDS011;26535;48.788;9.214;2023-09-08T08:16:05;11.38;;;7.38;;
40815;SDS011;26535;48.788;9.214;2023-09-08T08:18:31;13.85;;;7.32;;
40815;SDS011;26535;48.788;9.214;2023-09-08T08:20:57;13.23;;;7.38;;
40815;SDS011;26535;48.788;9.214;2023-09-08T08:23:22;9.93;;;7.40;;
40815;SDS011;26535;48.788;9.214;2023-09-08T08:25:48;13.13;;;7.43;;
40815;SDS011;26535;48.788;9.214;2023-09-08T08:28:14;10.48;;;7.07;;
40815;SDS011;26535;48.788;9.214;2023-09-08T08:30:40;11.57;;;6.97;;
40815;SDS011;26535;48.788;9.214;2023-09-08T08:33:06;13.50;;;7.15;;
40815;SDS011;26535;48.788;9.214;2023-09-08T08:35:31;12.23;;;7.10;;
40815;SDS011;26535;48.788;9.214;2023-09-08T08:37:58;9.70;;;7.45;;
40815;SDS011;26535;48.788;9.214;2023-09-08T08:40:25;11.35;;;7.15;;
40815;SDS011;26535;48.788;9.214;2023-09-08T08:42:58;12.45;;;6.68;;
40815;SDS011;26535;48.788;9.214;2023-09-08T08:45:24;10.93;;;7.10;;
40815;SDS011;26535;48.788;9.214;2023-09-08T08:47:50;9.00;;;6.72;;
40815;SDS011;26535;48.788;9.214;2023-09-08T08:50:17;10.60;;;7.20;;
40815;SDS011;26535;48.788;9.214;2023-09-08T08:52:44;11.88;;;6.78;;
40815;SDS011;26535;48.788;9.214;2023-09-08T08:55:10;10.88;;;6.50;;
40815;SDS011;26535;48.788;9.214;2023-09-08T08:57:39;10.65;;;7.35;;
40815;SDS011;26535;48.788;9.214;2023-09-08T09:00:09;11.35;;;6.72;;
40815;SDS011;26535;48.788;9.214;2023-09-08T09:02:38;10.50;;;7.00;;
40815;SDS011;26535;48.788;9.214;2023-09-08T09:05:07;12.30;;;6.25;;
40815;SDS011;26535;48.788;9.214;2023-09-08T09:07:36;9.68;;;6.60;;
40815;SDS011;26535;48.788;9.214;2023-09-08T09:10:03;13.27;;;6.63;;
40815;SDS011;26535;48.788;9.214;2023-09-08T09:12:29;14.05;;;6.03;;
40815;SDS011;26535;48.788;9.214;2023-09-08T09:14:56;9.30;;;5.50;;
40815;SDS011;26535;48.788;9.214;2023-09-08T09:19:49;10.85;;;6.18;;
40815;SDS011;26535;48.788;9.214;2023-09-08T09:22:15;11.73;;;5.43;;
40815;SDS011;26535;48.788;9.214;2023-09-08T09:24:46;6.38;;;5.10;;
40815;SDS011;26535;48.788;9.214;2023-09-08T09:27:19;9.70;;;5.65;;
40815;SDS011;26535;48.788;9.214;2023-09-08T09:29:56;10.70;;;5.32;;
40815;SDS011;26535;48.788;9.214;2023-09-08T09:32:26;9.35;;;5.78;;
40815;SDS011;26535;48.788;9.214;2023-09-08T09:34:58;9.73;;;5.50;;
40815;SDS011;26535;48.788;9.214;2023-09-08T09:37:27;7.80;;;5.38;;
40815;SDS011;26535;48.788;9.214;2023-09-08T09:39:54;10.57;;;5.57;;
40815;SDS011;26535;48.788;9.214;2023-09-08T09:42:20;9.48;;;5.07;;
40815;SDS011;26535;48.788;9.214;2023-09-08T09:44:51;9.18;;;5.13;;
40815;SDS011;26535;48.788;9.214;2023-09-08T09:47:33;9.95;;;5.28;;
40815;SDS011;26535;48.788;9.214;2023-09-08T09:50:02;7.82;;;4.97;;
40815;SDS011;26535;48.788;9.214;2023-09-08T09:52:39;6.90;;;4.57;;
40815;SDS011;26535;48.788;9.214;2023-09-08T09:55:16;10.02;;;4.72;;
40815;SDS011;26535;48.788;9.214;2023-09-08T09:57:42;9.63;;;5.05;;
40815;SDS011;26535;48.788;9.214;2023-09-08T10:00:22;7.07;;;4.85;;
40815;SDS011;26535;48.788;9.214;2023-09-08T10:02:50;6.55;;;5.25;;
40815;SDS011;26535;48.788;9.214;2023-09-08T10:05:16;6.53;;;4.93;;
40815;SDS011;26535;48.788;9.214;2023-09-08T10:07:43;9.63;;;5.20;;
40815;SDS011;26535;48.788;9.214;2023-09-08T10:10:32;8.68;;;4.75;;
40815;SDS011;26535;48.788;9.214;2023-09-08T10:13:03;8.15;;;4.90;;
40815;SDS011;26535;48.788;9.214;2023-09-08T10:15:35;6.65;;;4.78;;
40815;SDS011;26535;48.788;9.214;2023-09-08T10:18:06;9.07;;;5.10;;
40815;SDS011;26535;48.788;9.214;2023-09-08T10:20:34;6.25;;;4.60;;
40815;SDS011;26535;48.788;9.214;2023-09-08T10:25:37;8.80;;;4.25;;
40815;SDS011;26535;48.788;9.214;2023-09-08T10:28:09;8.60;;;4.97;;
40815;SDS011;26535;48.788;9.214;2023-09-08T10:30:35;6.93;;;4.30;;
40815;SDS011;26535;48.788;9.214;2023-09-08T10:33:04;5.65;;;4.15;;
40815;SDS011;26535;48.788;9.214;2023-09-08T10:35:31;7.72;;;4.55;;
40815;SDS011;26535;48.788;9.214;2023-09-08T10:38:58;6.72;;;4.15;;
40815;SDS011;26535;48.788;9.214;2023-09-08T10:41:39;6.60;;;4.22;;
40815;SDS011;26535;48.788;9.214;2023-09-08T10:43:40;8.25;;;3.95;;
40815;SDS011;26535;48.788;9.214;2023-09-08T10:46:26;6.78;;;4.20;;
40815;SDS011;26535;48.788;9.214;2023-09-08T10:48:53;6.28;;;4.22;;
40815;SDS011;26535;48.788;9.214;2023-09-08T10:51:20;8.07;;;4.05;;
40815;SDS011;26535;48.788;9.214;2023-09-08T10:53:48;4.72;;;3.97;;
40815;SDS011;26535;48.788;9.214;2023-09-08T10:56:17;8.90;;;4.45;;
40815;SDS011;26535;48.788;9.214;2023-09-08T10:58:43;7.13;;;4.25;;
40815;SDS011;26535;48.788;9.214;2023-09-08T11:01:19;7.20;;;4.00;;
40815;SDS011;26535;48.788;9.214;2023-09-08T11:03:54;7.70;;;4.47;;
40815;SDS011;26535;48.788;9.214;2023-09-08T11:06:20;6.72;;;4.13;;
40815;SDS011;26535;48.788;9.214;2023-09-08T11:08:55;6.55;;;4.60;;
40815;SDS011;26535;48.788;9.214;2023-09-08T11:13:49;7.43;;;4.20;;
40815;SDS011;26535;48.788;9.214;2023-09-08T11:16:17;5.05;;;4.55;;
40815;SDS011;26535;48.788;9.214;2023-09-08T11:18:51;7.03;;;4.38;;
40815;SDS011;26535;48.788;9.214;2023-09-08T11:21:23;7.55;;;3.92;;
40815;SDS011;26535;48.788;9.214;2023-09-08T11:23:49;8.15;;;4.00;;
40815;SDS011;26535;48.788;9.214;2023-09-08T11:26:18;5.80;;;3.72;;
40815;SDS011;26535;48.788;9.214;2023-09-08T11:28:44;5.50;;;3.90;;
40815;SDS011;26535;48.788;9.214;2023-09-08T11:31:14;5.07;;;3.65;;
40815;SDS011;26535;48.788;9.214;2023-09-08T11:33:41;5.80;;;3.50;;
40815;SDS011;26535;48.788;9.214;2023-09-08T11:36:13;4.70;;;3.35;;
40815;SDS011;26535;48.788;9.214;2023-09-08T11:38:40;5.45;;;3.67;;
40815;SDS011;26535;48.788;9.214;2023-09-08T11:43:33;5.60;;;3.55;;
40815;SDS011;26535;48.788;9.214;2023-09-08T11:45:59;7.90;;;3.90;;
40815;SDS011;26535;48.788;9.214;2023-09-08T11:48:25;5.63;;;3.65;;
40815;SDS011;26535;48.788;9.214;2023-09-08T11:50:54;5.38;;;3.45;;
40815;SDS011;26535;48.788;9.214;2023-09-08T11:53:20;5.65;;;3.67;;
40815;SDS011;26535;48.788;9.214;2023-09-08T11:55:50;4.53;;;3.30;;
40815;SDS011;26535;48.788;9.214;2023-09-08T11:58:16;4.97;;;3.47;;
40815;SDS011;26535;48.788;9.214;2023-09-08T12:00:44;7.10;;;3.97;;
40815;SDS011;26535;48.788;9.214;2023-09-08T12:03:11;5.05;;;3.85;;
40815;SDS011;26535;48.788;9.214;2023-09-08T12:05:38;4.35;;;3.50;;
40815;SDS011;26535;48.788;9.214;2023-09-08T12:08:05;4.22;;;3.60;;
40815;SDS011;26535;48.788;9.214;2023-09-08T12:10:37;3.90;;;3.05;;
40815;SDS011;26535;48.788;9.214;2023-09-08T12:13:03;5.10;;;3.63;;
40815;SDS011;26535;48.788;9.214;2023-09-08T12:15:33;4.03;;;3.35;;
40815;SDS011;26535;48.788;9.214;2023-09-08T12:18:07;4.88;;;3.45;;
40815;SDS011;26535;48.788;9.214;2023-09-08T12:20:34;4.57;;;3.20;;
40815;SDS011;26535;48.788;9.214;2023-09-08T12:23:02;4.13;;;3.40;;
40815;SDS011;26535;48.788;9.214;2023-09-08T12:25:29;3.97;;;3.35;;
40815;SDS011;26535;48.788;9.214;2023-09-08T12:27:59;5.20;;;3.20;;
40815;SDS011;26535;48.788;9.214;2023-09-08T12:30:25;4.80;;;3.38;;
40815;SDS011;26535;48.788;9.214;2023-09-08T12:32:57;3.47;;;2.97;;
40815;SDS011;26535;48.788;9.214;2023-09-08T12:35:25;3.72;;;2.72;;
40815;SDS011;26535;48.788;9.214;2023-09-08T12:38:01;4.13;;;2.97;;
40815;SDS011;26535;48.788;9.214;2023-09-08T12:40:29;5.20;;;3.30;;
40815;SDS011;26535;48.788;9.214;2023-09-08T12:42:58;6.10;;;2.90;;
40815;SDS011;26535;48.788;9.214;2023-09-08T12:45:25;3.97;;;3.30;;
40815;SDS011;26535;48.788;9.214;2023-09-08T12:47:52;5.32;;;3.00;;
40815;SDS011;26535;48.788;9.214;2023-09-08T12:50:19;5.90;;;3.03;;
40815;SDS011;26535;48.788;9.214;2023-09-08T12:52:45;3.97;;;3.28;;
40815;SDS011;26535;48.788;9.214;2023-09-08T12:55:11;9.23;;;3.40;;
40815;SDS011;26535;48.788;9.214;2023-09-08T12:57:37;4.22;;;3.20;;
40815;SDS011;26535;48.788;9.214;2023-09-08T13:00:03;3.78;;;3.25;;
40815;SDS011;26535;48.788;9.214;2023-09-08T13:04:56;4.82;;;3.20;;
40815;SDS011;26535;48.788;9.214;2023-09-08T13:07:23;3.92;;;3.20;;
40815;SDS011;26535;48.788;9.214;2023-09-08T13:09:49;5.10;;;3.50;;
40815;SDS011;26535;48.788;9.214;2023-09-08T13:12:15;4.68;;;2.60;;
40815;SDS011;26535;48.788;9.214;2023-09-08T13:14:41;4.53;;;3.22;;
40815;SDS011;26535;48.788;9.214;2023-09-08T13:17:09;3.00;;;2.70;;
40815;SDS011;26535;48.788;9.214;2023-09-08T13:19:35;3.30;;;2.72;;
40815;SDS011;26535;48.788;9.214;2023-09-08T13:22:03;4.97;;;3.05;;
40815;SDS011;26535;48.788;9.214;2023-09-08T13:24:30;3.63;;;2.50;;
40815;SDS011;26535;48.788;9.214;2023-09-08T13:26:59;4.03;;;3.00;;
40815;SDS011;26535;48.788;9.214;2023-09-08T13:29:25;5.57;;;3.22;;
40815;SDS011;26535;48.788;9.214;2023-09-08T13:31:56;4.03;;;2.90;;
40815;SDS011;26535;48.788;9.214;2023-09-08T13:34:23;3.70;;;3.00;;
40815;SDS011;26535;48.788;9.214;2023-09-08T13:36:49;3.58;;;2.95;;
40815;SDS011;26535;48.788;9.214;2023-09-08T13:39:14;7.07;;;3.13;;
40815;SDS011;26535;48.788;9.214;2023-09-08T13:41:47;3.95;;;2.90;;
40815;SDS011;26535;48.788;9.214;2023-09-08T13:44:15;5.70;;;2.90;;
40815;SDS011;26535;48.788;9.214;2023-09-08T13:46:42;5.13;;;3.28;;
40815;SDS011;26535;48.788;9.214;2023-09-08T13:49:07;4.43;;;3.00;;
40815;SDS011;26535;48.788;9.214;2023-09-08T13:51:33;3.77;;;2.57;;
40815;SDS011;26535;48.788;9.214;2023-09-08T13:53:59;4.57;;;2.70;;
40815;SDS011;26535;48.788;9.214;2023-09-08T13:56:25;3.45;;;3.10;;
40815;SDS011;26535;48.788;9.214;2023-09-08T13:58:51;4.05;;;2.90;;
40815;SDS011;26535;48.788;9.214;2023-09-08T14:01:17;5.55;;;2.83;;
40815;SDS011;26535;48.788;9.214;2023-09-08T14:03:43;3.47;;;2.40;;
40815;SDS011;26535;48.788;9.214;2023-09-08T14:06:09;4.15;;;2.53;;
40815;SDS011;26535;48.788;9.214;2023-09-08T14:08:35;4.18;;;2.70;;
40815;SDS011;26535;48.788;9.214;2023-09-08T14:11:01;6.05;;;3.15;;
40815;SDS011;26535;48.788;9.214;2023-09-08T14:13:33;3.57;;;2.70;;
40815;SDS011;26535;48.788;9.214;2023-09-08T14:15:58;3.95;;;2.78;;
40815;SDS011;26535;48.788;9.214;2023-09-08T14:18:24;4.17;;;2.63;;
40815;SDS011;26535;48.788;9.214;2023-09-08T14:20:53;4.40;;;2.83;;
40815;SDS011;26535;48.788;9.214;2023-09-08T14:23:19;3.28;;;2.58;;
40815;SDS011;26535;48.788;9.214;2023-09-08T14:25:44;4.57;;;2.90;;
40815;SDS011;26535;48.788;9.214;2023-09-08T14:28:10;4.53;;;2.70;;
40815;SDS011;26535;48.788;9.214;2023-09-08T14:30:36;4.47;;;2.60;;
40815;SDS011;26535;48.788;9.214;2023-09-08T14:33:01;3.13;;;2.60;;
40815;SDS011;26535;48.788;9.214;2023-09-08T14:40:21;3.65;;;2.70;;
40815;SDS011;26535;48.788;9.214;2023-09-08T14:42:47;3.80;;;3.10;;
40815;SDS011;26535;48.788;9.214;2023-09-08T14:45:13;5.57;;;2.57;;
40815;SDS011;26535;48.788;9.214;2023-09-08T14:47:39;6.73;;;3.10;;
40815;SDS011;26535;48.788;9.214;2023-09-08T14:50:05;4.90;;;2.87;;
40815;SDS011;26535;48.788;9.214;2023-09-08T14:52:31;3.10;;;2.70;;
40815;SDS011;26535;48.788;9.214;2023-09-08T14:54:57;4.03;;;2.90;;
40815;SDS011;26535;48.788;9.214;2023-09-08T14:57:24;6.47;;;3.05;;
40815;SDS011;26535;48.788;9.214;2023-09-08T15:00:08;5.73;;;2.33;;
40815;SDS011;26535;48.788;9.214;2023-09-08T15:02:34;3.55;;;2.40;;
40815;SDS011;26535;48.788;9.214;2023-09-08T15:05:00;3.17;;;2.60;;
40815;SDS011;26535;48.788;9.214;2023-09-08T15:07:26;3.97;;;2.45;;
40815;SDS011;26535;48.788;9.214;2023-09-08T15:09:52;3.03;;;2.43;;
40815;SDS011;26535;48.788;9.214;2023-09-08T15:12:17;3.97;;;2.57;;
40815;SDS011;26535;48.788;9.214;2023-09-08T15:14:43;3.00;;;2.70;;
40815;SDS011;26535;48.788;9.214;2023-09-08T15:17:10;3.00;;;2.70;;
40815;SDS011;26535;48.788;9.214;2023-09-08T15:19:37;4.18;;;2.75;;
40815;SDS011;26535;48.788;9.214;2023-09-08T15:22:04;4.13;;;2.60;;
40815;SDS011;26535;48.788;9.214;2023-09-08T15:24:30;4.03;;;2.28;;
40815;SDS011;26535;48.788;9.214;2023-09-08T15:29:22;2.90;;;2.60;;
40815;SDS011;26535;48.788;9.214;2023-09-08T15:31:48;4.45;;;2.50;;
40815;SDS011;26535;48.788;9.214;2023-09-08T15:34:14;4.18;;;2.70;;
40815;SDS011;26535;48.788;9.214;2023-09-08T15:36:40;3.42;;;2.47;;
40815;SDS011;26535;48.788;9.214;2023-09-08T15:39:05;6.37;;;2.67;;
40815;SDS011;26535;48.788;9.214;2023-09-08T15:41:31;4.40;;;2.63;;
40815;SDS011;26535;48.788;9.214;2023-09-08T15:43:57;4.10;;;2.85;;
40815;SDS011;26535;48.788;9.214;2023-09-08T15:46:23;3.65;;;2.65;;
40815;SDS011;26535;48.788;9.214;2023-09-08T15:48:49;3.47;;;2.53;;
40815;SDS011;26535;48.788;9.214;2023-09-08T15:51:15;4.20;;;2.60;;
40815;SDS011;26535;48.788;9.214;2023-09-08T15:53:41;3.73;;;2.70;;
40815;SDS011;26535;48.788;9.214;2023-09-08T15:56:07;4.53;;;2.60;;
40815;SDS011;26535;48.788;9.214;2023-09-08T15:58:34;4.80;;;2.50;;
40815;SDS011;26535;48.788;9.214;2023-09-08T16:01:03;4.97;;;2.85;;
40815;SDS011;26535;48.788;9.214;2023-09-08T16:03:41;4.28;;;2.97;;
40815;SDS011;26535;48.788;9.214;2023-09-08T16:06:07;3.25;;;2.33;;
40815;SDS011;26535;48.788;9.214;2023-09-08T16:08:34;5.68;;;2.55;;
40815;SDS011;26535;48.788;9.214;2023-09-08T16:11:00;2.88;;;2.50;;
40815;SDS011;26535;48.788;9.214;2023-09-08T16:13:31;3.72;;;2.60;;
40815;SDS011;26535;48.788;9.214;2023-09-08T16:15:58;3.60;;;2.47;;
40815;SDS011;26535;48.788;9.214;2023-09-08T16:18:24;4.17;;;2.97;;
40815;SDS011;26535;48.788;9.214;2023-09-08T16:20:50;3.97;;;2.83;;
40815;SDS011;26535;48.788;9.214;2023-09-08T16:23:18;3.22;;;2.75;;
40815;SDS011;26535;48.788;9.214;2023-09-08T16:26:16;5.65;;;2.60;;
40815;SDS011;26535;48.788;9.214;2023-09-08T16:28:45;3.95;;;3.05;;
40815;SDS011;26535;48.788;9.214;2023-09-08T16:31:13;4.13;;;2.50;;
40815;SDS011;26535;48.788;9.214;2023-09-08T16:33:47;5.30;;;2.60;;
40815;SDS011;26535;48.788;9.214;2023-09-08T16:36:12;4.88;;;2.70;;
40815;SDS011;26535;48.788;9.214;2023-09-08T16:38:38;5.38;;;3.33;;
40815;SDS011;26535;48.788;9.214;2023-09-08T16:41:04;4.32;;;2.90;;
40815;SDS011;26535;48.788;9.214;2023-09-08T16:43:30;4.72;;;2.90;;
40815;SDS011;26535;48.788;9.214;2023-09-08T16:46:00;4.30;;;2.90;;
40815;SDS011;26535;48.788;9.214;2023-09-08T16:48:26;4.47;;;2.97;;
40815;SDS011;26535;48.788;9.214;2023-09-08T16:50:51;3.38;;;2.92;;
40815;SDS011;26535;48.788;9.214;2023-09-08T16:53:17;3.40;;;2.72;;
40815;SDS011;26535;48.788;9.214;2023-09-08T16:55:43;3.92;;;2.72;;
40815;SDS011;26535;48.788;9.214;2023-09-08T16:58:09;4.80;;;3.22;;
40815;SDS011;26535;48.788;9.214;2023-09-08T17:00:35;3.83;;;2.67;;
40815;SDS011;26535;48.788;9.214;2023-09-08T17:03:01;4.45;;;2.83;;
40815;SDS011;26535;48.788;9.214;2023-09-08T17:05:28;3.87;;;3.27;;
40815;SDS011;26535;48.788;9.214;2023-09-08T17:07:53;5.30;;;3.15;;
40815;SDS011;26535;48.788;9.214;2023-09-08T17:10:46;6.05;;;3.28;;
40815;SDS011;26535;48.788;9.214;2023-09-08T17:13:22;4.68;;;3.28;;
40815;SDS011;26535;48.788;9.214;2023-09-08T17:15:51;5.53;;;3.63;;
40815;SDS011;26535;48.788;9.214;2023-09-08T17:18:17;7.28;;;3.50;;
40815;SDS011;26535;48.788;9.214;2023-09-08T17:20:51;4.20;;;3.30;;
40815;SDS011;26535;48.788;9.214;2023-09-08T17:23:17;5.13;;;3.45;;
40815;SDS011;26535;48.788;9.214;2023-09-08T17:25:43;6.60;;;3.47;;
40815;SDS011;26535;48.788;9.214;2023-09-08T17:28:22;4.00;;;3.45;;
40815;SDS011;26535;48.788;9.214;2023-09-08T17:31:10;4.68;;;3.17;;
40815;SDS011;26535;48.788;9.214;2023-09-08T17:33:40;5.20;;;3.47;;
40815;SDS011;26535;48.788;9.214;2023-09-08T17:36:10;4.50;;;3.28;;
40815;SDS011;26535;48.788;9.214;2023-09-08T17:39:01;5.78;;;3.53;;
40815;SDS011;26535;48.788;9.214;2023-09-08T17:41:37;6.72;;;3.63;;
40815;SDS011;26535;48.788;9.214;2023-09-08T17:44:14;5.85;;;3.83;;
40815;SDS011;26535;48.788;9.214;2023-09-08T17:46:43;6.85;;;4.25;;
40815;SDS011;26535;48.788;9.214;2023-09-08T17:49:19;11.52;;;10.43;;
40815;SDS011;26535;48.788;9.214;2023-09-08T17:51:45;10.07;;;5.47;;
40815;SDS011;26535;48.788;9.214;2023-09-08T17:54:16;6.78;;;5.30;;
40815;SDS011;26535;48.788;9.214;2023-09-08T17:57:05;6.65;;;5.03;;
40815;SDS011;26535;48.788;9.214;2023-09-08T17:59:39;9.68;;;6.85;;
40815;SDS011;26535;48.788;9.214;2023-09-08T18:02:08;9.55;;;7.28;;
40815;SDS011;26535;48.788;9.214;2023-09-08T18:04:34;7.75;;;5.60;;
40815;SDS011;26535;48.788;9.214;2023-09-08T18:09:40;6.75;;;5.20;;
40815;SDS011;26535;48.788;9.214;2023-09-08T18:12:05;6.65;;;4.95;;
40815;SDS011;26535;48.788;9.214;2023-09-08T18:14:31;7.68;;;5.20;;
40815;SDS011;26535;48.788;9.214;2023-09-08T18:17:00;8.35;;;5.13;;
40815;SDS011;26535;48.788;9.214;2023-09-08T18:19:55;6.47;;;4.72;;
40815;SDS011;26535;48.788;9.214;2023-09-08T18:23:11;7.93;;;4.60;;
40815;SDS011;26535;48.788;9.214;2023-09-08T18:25:46;7.97;;;6.28;;
40815;SDS011;26535;48.788;9.214;2023-09-08T18:31:34;8.02;;;4.50;;
40815;SDS011;26535;48.788;9.214;2023-09-08T18:34:03;8.30;;;5.15;;
40815;SDS011;26535;48.788;9.214;2023-09-08T18:36:46;7.10;;;4.63;;
40815;SDS011;26535;48.788;9.214;2023-09-08T18:39:21;7.25;;;4.70;;
40815;SDS011;26535;48.788;9.214;2023-09-08T18:44:37;7.28;;;5.00;;
40815;SDS011;26535;48.788;9.214;2023-09-08T18:47:22;8.38;;;5.28;;
40815;SDS011;26535;48.788;9.214;2023-09-08T18:49:48;6.68;;;5.00;;
40815;SDS011;26535;48.788;9.214;2023-09-08T18:54:54;7.63;;;5.55;;
40815;SDS011;26535;48.788;9.214;2023-09-08T18:57:32;7.53;;;5.45;;
40815;SDS011;26535;48.788;9.214;2023-09-08T19:00:03;7.53;;;4.90;;
40815;SDS011;26535;48.788;9.214;2023-09-08T19:02:37;9.00;;;5.40;;
40815;SDS011;26535;48.788;9.214;2023-09-08T19:05:15;7.10;;;5.53;;
40815;SDS011;26535;48.788;9.214;2023-09-08T19:07:44;7.88;;;5.82;;
40815;SDS011;26535;48.788;9.214;2023-09-08T19:10:21;9.13;;;5.40;;
40815;SDS011;26535;48.788;9.214;2023-09-08T19:12:47;10.48;;;6.65;;
40815;SDS011;26535;48.788;9.214;2023-09-08T19:15:15;9.30;;;6.50;;
40815;SDS011;26535;48.788;9.214;2023-09-08T19:17:42;10.50;;;6.57;;
40815;SDS011;26535;48.788;9.214;2023-09-08T19:20:22;8.52;;;6.05;;
40815;SDS011;26535;48.788;9.214;2023-09-08T19:23:03;9.32;;;5.80;;
40815;SDS011;26535;48.788;9.214;2023-09-08T19:25:30;8.43;;;5.50;;
40815;SDS011;26535;48.788;9.214;2023-09-08T19:27:56;10.52;;;6.57;;
40815;SDS011;26535;48.788;9.214;2023-09-08T19:30:22;8.43;;;6.35;;
40815;SDS011;26535;48.788;9.214;2023-09-08T19:35:33;11.00;;;6.78;;
40815;SDS011;26535;48.788;9.214;2023-09-08T19:38:11;13.18;;;8.18;;
40815;SDS011;26535;48.788;9.214;2023-09-08T19:40:39;11.38;;;8.07;;
40815;SDS011;26535;48.788;9.214;2023-09-08T19:43:29;10.55;;;7.68;;
40815;SDS011;26535;48.788;9.214;2023-09-08T19:46:10;9.38;;;7.22;;
40815;SDS011;26535;48.788;9.214;2023-09-08T19:48:43;10.13;;;7.55;;
40815;SDS011;26535;48.788;9.214;2023-09-08T19:51:15;9.43;;;7.25;;
40815;SDS011;26535;48.788;9.214;2023-09-08T19:53:48;10.20;;;7.10;;
40815;SDS011;26535;48.788;9.214;2023-09-08T19:56:17;10.65;;;7.05;;
40815;SDS011;26535;48.788;9.214;2023-09-08T19:58:51;9.93;;;6.50;;
40815;SDS011;26535;48.788;9.214;2023-09-08T20:01:17;12.07;;;7.70;;
40815;SDS011;26535;48.788;9.214;2023-09-08T20:03:43;9.88;;;7.13;;
40815;SDS011;26535;48.788;9.214;2023-09-08T20:06:13;11.40;;;7.60;;
40815;SDS011;26535;48.788;9.214;2023-09-08T20:08:42;10.30;;;7.50;;
40815;SDS011;26535;48.788;9.214;2023-09-08T20:11:11;8.80;;;7.00;;
40815;SDS011;26535;48.788;9.214;2023-09-08T20:13:37;9.95;;;7.47;;
40815;SDS011;26535;48.788;9.214;2023-09-08T20:16:03;9.40;;;7.20;;
40815;SDS011;26535;48.788;9.214;2023-09-08T20:21:41;11.52;;;8.50;;
40815;SDS011;26535;48.788;9.214;2023-09-08T20:24:14;12.75;;;7.95;;
40815;SDS011;26535;48.788;9.214;2023-09-08T20:26:40;15.25;;;8.98;;
40815;SDS011;26535;48.788;9.214;2023-09-08T20:29:06;12.13;;;9.18;;
40815;SDS011;26535;48.788;9.214;2023-09-08T20:34:29;10.90;;;8.88;;
40815;SDS011;26535;48.788;9.214;2023-09-08T20:37:20;19.50;;;10.80;;
40815;SDS011;26535;48.788;9.214;2023-09-08T20:39:57;15.23;;;10.20;;
40815;SDS011;26535;48.788;9.214;2023-09-08T20:42:26;13.10;;;9.85;;